Time;durP1;ratioP1;P1;durP2;ratioP2;P2;SDS_P1;SDS_P2;PMS_P1;PMS_P2;Temp;Humidity;BMP_temperature;BMP_pressure;BME280_temperature;BME280_humidity;BME280_pressure;Samples;Min_cycle;Max_cycle;Signal;HPM_P1;HPM_P2
2023/11/11 06:46:22;;;;;;;2.50;0.82;;;;;;;;;;10520868;28;20411;-83
2023/11/11 06:51:23;;;;;;;1.52;0.70;;;;;;;;;;10503431;28;20488;-83
2023/11/11 06:56:24;;;;;;;;;;;;;;;;;;10503446;28;20025;-84
2023/11/11 07:01:25;;;;;;;4.47;1.10;;;;;;;;;;10503102;28;19905;-84
2023/11/11 07:06:27;;;;;;;3.22;1.08;;;;;;;;;;10503439;28;20263;-83
2023/11/11 07:11:28;;;;;;;1.63;0.70;;;;;;;;;;10496982;28;20032;-83
2023/11/11 07:16:29;;;;;;;2.35;1.05;;;;;;;;;;10492808;28;20124;-84
2023/11/11 07:21:30;;;;;;;1.98;0.93;;;;;;;;;;10496174;28;20017;-84
2023/11/11 07:26:31;;;;;;;2.70;1.20;;;;;;;;;;10500560;28;20051;-84
2023/11/11 07:31:32;;;;;;;;;;;;;;;;;;10507473;28;20032;-84
2023/11/11 07:36:33;;;;;;;3.22;1.60;;;;;;;;;;10512845;28;20048;-84
2023/11/11 07:41:34;;;;;;;2.33;1.27;;;;;;;;;;10529126;28;20057;-83
2023/11/11 07:46:35;;;;;;;;;;;;;;;;;;10508139;28;20033;-82
2023/11/11 07:51:37;;;;;;;3.80;2.85;;;;;;;;;;10493389;28;20373;-83
2023/11/11 07:56:38;;;;;;;7.20;6.25;;;;;;;;;;10473663;28;20477;-84
2023/11/11 08:01:39;;;;;;;;;;;;;;;;;;10467309;28;20033;-81
2023/11/11 08:06:40;;;;;;;3.70;1.80;;;;;;;;;;10463532;28;19908;-80
2023/11/11 08:11:42;;;;;;;3.63;2.10;;;;;;;;;;10464247;28;20031;-81
2023/11/11 08:16:43;;;;;;;5.95;1.90;;;;;;;;;;10464712;28;20029;-81
2023/11/11 08:21:44;;;;;;;3.20;1.85;;;;;;;;;;10468837;28;20029;-81
2023/11/11 08:26:45;;;;;;;;;;;;;;;;;;10469751;28;20021;-81
2023/11/11 08:31:46;;;;;;;6.40;3.08;;;;;;;;;;10468797;28;19905;-82
2023/11/11 08:36:48;;;;;;;5.13;3.35;;;;;;;;;;10468112;28;20120;-82
2023/11/11 08:41:49;;;;;;;3.38;1.92;;;;;;;;;;10466253;28;20044;-80
2023/11/11 08:46:50;;;;;;;;;;;;;;;;;;10467635;28;20091;-81
2023/11/11 08:51:51;;;;;;;2.90;1.80;;;;;;;;;;10481012;28;19926;-79
2023/11/11 08:56:52;;;;;;;;;;;;;;;;;;10480098;28;20043;-81
2023/11/11 09:01:57;;;;;;;3.92;2.58;;;;;;;;;;10465912;28;19916;-80
2023/11/11 09:06:59;;;;;;;5.07;2.28;;;;;;;;;;10467856;28;20021;-80
2023/11/11 09:12:01;;;;;;;7.57;4.10;;;;;;;;;;10468087;28;20116;-81
2023/11/11 09:17:03;;;;;;;4.63;2.67;;;;;;;;;;10466906;28;20025;-80
2023/11/11 09:22:04;;;;;;;4.50;2.70;;;;;;;;;;10468828;28;20495;-82
2023/11/11 09:27:06;;;;;;;6.25;3.50;;;;;;;;;;10466060;28;20017;-81
2023/11/11 09:32:08;;;;;;;5.55;3.97;;;;;;;;;;10466819;28;20037;-80
2023/11/11 09:37:09;;;;;;;3.85;2.70;;;;;;;;;;10478083;28;20029;-82
2023/11/11 09:42:10;;;;;;;;;;;;;;;;;;10466961;28;20036;-81
2023/11/11 09:47:15;;;;;;;5.38;3.33;;;;;;;;;;10467646;28;19911;-81
2023/11/11 09:52:16;;;;;;;6.13;4.43;;;;;;;;;;10466917;28;20024;-82
2023/11/11 09:57:19;;;;;;;;;;;;;;;;;;10466009;28;20070;-81
2023/11/11 10:02:23;;;;;;;6.45;4.95;;;;;;;;;;10464525;28;20275;-80
2023/11/11 10:07:25;;;;;;;7.28;4.25;;;;;;;;;;10464818;28;20524;-82
2023/11/11 10:12:26;;;;;;;6.60;4.22;;;;;;;;;;10475666;28;20037;-80
2023/11/11 10:17:27;;;;;;;6.10;4.40;;;;;;;;;;10465338;28;20063;-80
2023/11/11 10:22:29;;;;;;;;;;;;;;;;;;10464731;28;20029;-81
2023/11/11 10:27:30;;;;;;;5.88;4.13;;;;;;;;;;10465989;28;20249;-80
2023/11/11 10:32:31;;;;;;;8.00;5.45;;;;;;;;;;10466436;28;20077;-80
2023/11/11 10:37:32;;;;;;;;;;;;;;;;;;10464869;28;20119;-80
2023/11/11 10:42:34;;;;;;;8.00;5.57;;;;;;;;;;10468907;28;19919;-80
2023/11/11 10:47:36;;;;;;;5.43;4.07;;;;;;;;;;10471628;28;20109;-81
2023/11/11 10:52:41;;;;;;;5.82;4.35;;;;;;;;;;10466674;28;20088;-81
2023/11/11 10:57:42;;;;;;;7.82;4.88;;;;;;;;;;10466516;28;20398;-81
2023/11/11 11:02:53;;;;;;;8.70;5.85;;;;;;;;;;10469127;28;20036;-82
2023/11/11 11:08:24;;;;;;;7.72;5.20;;;;;;;;;;10468926;28;20419;-81
2023/11/11 11:13:27;;;;;;;5.53;3.88;;;;;;;;;;10446035;28;20102;-80
2023/11/11 11:18:28;;;;;;;8.80;6.65;;;;;;;;;;10465195;28;20029;-80
2023/11/11 11:23:29;;;;;;;;;;;;;;;;;;10467836;28;20064;-79
2023/11/11 11:28:31;;;;;;;6.32;4.10;;;;;;;;;;10465895;28;19905;-81
2023/11/11 11:33:33;;;;;;;8.35;3.88;;;;;;;;;;10470197;28;20092;-81
2023/11/11 11:38:35;;;;;;;4.95;4.32;;;;;;;;;;10469516;28;20400;-81
2023/11/11 11:43:37;;;;;;;5.93;3.25;;;;;;;;;;10470490;28;20032;-81
2023/11/11 11:48:39;;;;;;;8.07;4.07;;;;;;;;;;10476752;28;20029;-80
2023/11/11 11:53:41;;;;;;;4.78;3.05;;;;;;;;;;10490451;28;20032;-80
2023/11/11 11:58:46;;;;;;;5.20;2.95;;;;;;;;;;10472820;28;20033;-81
2023/11/11 12:03:48;;;;;;;4.68;3.08;;;;;;;;;;10472995;28;20031;-81
2023/11/11 12:08:53;;;;;;;6.53;3.60;;;;;;;;;;10471572;28;20101;-82
2023/11/11 12:13:55;;;;;;;6.30;4.03;;;;;;;;;;10470306;28;20086;-82
2023/11/11 12:19:06;;;;;;;7.10;3.88;;;;;;;;;;10464941;28;20435;-81
2023/11/11 12:24:08;;;;;;;6.68;4.90;;;;;;;;;;10468601;28;20033;-80
2023/11/11 12:29:09;;;;;;;5.43;3.83;;;;;;;;;;10467265;28;20021;-81
2023/11/11 12:34:11;;;;;;;5.13;2.90;;;;;;;;;;10467132;28;20120;-82
2023/11/11 12:39:14;;;;;;;6.28;2.55;;;;;;;;;;10466802;28;20021;-83
2023/11/11 12:44:15;;;;;;;6.30;2.65;;;;;;;;;;10466390;28;20033;-81
2023/11/11 12:49:18;;;;;;;5.03;2.50;;;;;;;;;;10468157;28;20443;-84
2023/11/11 12:54:28;;;;;;;3.85;2.20;;;;;;;;;;10475011;22;20054;-81
2023/11/11 12:59:29;;;;;;;5.82;2.72;;;;;;;;;;10414727;28;20130;-85
2023/11/11 13:04:30;;;;;;;4.30;2.70;;;;;;;;;;10414795;28;20124;-86
2023/11/11 13:09:41;;;;;;;6.45;2.60;;;;;;;;;;10424847;28;20048;-86
2023/11/11 13:14:54;;;;;;;5.65;2.53;;;;;;;;;;10445228;28;20108;-86
2023/11/11 13:19:59;;;;;;;5.25;3.42;;;;;;;;;;10435453;28;20120;-86
2023/11/11 13:25:00;;;;;;;4.65;2.58;;;;;;;;;;10413850;28;20021;-86
2023/11/11 13:30:02;;;;;;;5.03;2.72;;;;;;;;;;10413640;28;20049;-84
2023/11/11 13:35:16;;;;;;;5.28;1.90;;;;;;;;;;10428689;28;20033;-83
2023/11/11 13:40:39;;;;;;;4.28;2.20;;;;;;;;;;10417089;28;20051;-85
2023/11/11 13:45:46;;;;;;;5.10;2.63;;;;;;;;;;10446740;28;20052;-84
2023/11/11 13:50:47;;;;;;;5.47;3.22;;;;;;;;;;10413576;28;20029;-84
2023/11/11 13:55:48;;;;;;;;;;;;;;;;;;10413977;28;20044;-83
2023/11/11 14:00:49;;;;;;;5.32;2.50;;;;;;;;;;10411457;28;19905;-86
2023/11/11 14:05:50;;;;;;;5.78;3.50;;;;;;;;;;10408458;28;20049;-86
2023/11/11 14:10:53;;;;;;;;;;;;;;;;;;10411997;28;20032;-86
2023/11/11 14:15:54;;;;;;;4.40;2.05;;;;;;;;;;10409825;28;19905;-84
2023/11/11 14:20:59;;;;;;;3.75;2.15;;;;;;;;;;10413361;28;20033;-84
2023/11/11 14:26:00;;;;;;;4.88;2.67;;;;;;;;;;10412306;28;20033;-86
2023/11/11 14:31:07;;;;;;;4.30;2.92;;;;;;;;;;10429242;28;20022;-83
2023/11/11 14:36:10;;;;;;;5.53;3.60;;;;;;;;;;10413721;28;20060;-83
2023/11/11 14:41:12;;;;;;;3.15;2.03;;;;;;;;;;10420569;28;20093;-83
2023/11/11 14:46:13;;;;;;;4.03;2.50;;;;;;;;;;10419229;28;20038;-83
2023/11/11 14:51:14;;;;;;;4.50;2.42;;;;;;;;;;10437239;28;20033;-86
2023/11/11 14:56:15;;;;;;;5.07;2.40;;;;;;;;;;10426983;28;20057;-82
2023/11/11 15:01:16;;;;;;;;;;;;;;;;;;10432566;28;20113;-82
2023/11/11 15:06:21;;;;;;;3.17;2.13;;;;;;;;;;10441445;28;19956;-82
2023/11/11 15:11:25;;;;;;;4.70;2.88;;;;;;;;;;10445373;28;20029;-83
2023/11/11 15:16:27;;;;;;;5.28;2.50;;;;;;;;;;10398290;28;20124;-82
2023/11/11 15:21:28;;;;;;;4.80;2.13;;;;;;;;;;10415165;28;20029;-82
2023/11/11 15:26:30;;;;;;;4.15;2.22;;;;;;;;;;10413716;28;20029;-82
2023/11/11 15:31:31;;;;;;;3.85;2.38;;;;;;;;;;10414391;28;20022;-82
2023/11/11 15:36:35;;;;;;;;;;;;;;;;;;10415593;28;20033;-82
2023/11/11 15:41:37;;;;;;;5.50;2.33;;;;;;;;;;10430138;28;19909;-82
2023/11/11 15:46:39;;;;;;;5.85;3.13;;;;;;;;;;10429665;28;20029;-83
2023/11/11 15:51:40;;;;;;;4.80;2.70;;;;;;;;;;10397167;28;20034;-83
2023/11/11 15:56:46;;;;;;;2.78;2.25;;;;;;;;;;10412914;28;20029;-84
2023/11/11 16:01:47;;;;;;;4.50;2.33;;;;;;;;;;10431244;28;20025;-83
2023/11/11 16:06:48;;;;;;;;;;;;;;;;;;10413308;28;20121;-83
2023/11/11 16:11:50;;;;;;;4.00;2.00;;;;;;;;;;10427971;28;19905;-83
2023/11/11 16:16:57;;;;;;;5.20;3.00;;;;;;;;;;10408887;28;20037;-83
2023/11/11 16:21:58;;;;;;;5.03;2.97;;;;;;;;;;10409381;28;20489;-83
2023/11/11 16:26:59;;;;;;;3.72;2.22;;;;;;;;;;10392809;28;20033;-83
2023/11/11 16:32:02;;;;;;;6.80;3.05;;;;;;;;;;10410713;28;20497;-83
2023/11/11 16:37:04;;;;;;;4.97;3.08;;;;;;;;;;10426802;28;20056;-83
2023/11/11 16:42:07;;;;;;;4.50;2.80;;;;;;;;;;10393580;28;20025;-85
2023/11/11 16:47:08;;;;;;;4.53;2.78;;;;;;;;;;10426187;28;20030;-83
2023/11/11 16:52:09;;;;;;;4.45;2.53;;;;;;;;;;10407161;28;20025;-84
2023/11/11 16:57:11;;;;;;;3.88;2.33;;;;;;;;;;10409147;28;20029;-83
2023/11/11 17:02:12;;;;;;;;;;;;;;;;;;10408842;28;20025;-83
2023/11/11 17:07:13;;;;;;;3.92;2.80;;;;;;;;;;10407902;28;19913;-83
2023/11/11 17:12:40;;;;;;;4.15;2.45;;;;;;;;;;10427965;28;20112;-83
2023/11/11 17:17:41;;;;;;;4.32;3.22;;;;;;;;;;10408112;28;20124;-84
2023/11/11 17:22:42;;;;;;;3.08;2.33;;;;;;;;;;10407495;28;20068;-83
2023/11/11 17:27:44;;;;;;;4.50;2.72;;;;;;;;;;10405583;28;20091;-82
2023/11/11 17:32:45;;;;;;;3.97;2.30;;;;;;;;;;10425598;28;20028;-82
2023/11/11 17:37:46;;;;;;;;;;;;;;;;;;10406777;28;20512;-81
2023/11/11 17:42:47;;;;;;;5.63;2.97;;;;;;;;;;10405377;28;19909;-82
2023/11/11 17:47:48;;;;;;;5.05;3.03;;;;;;;;;;10407760;28;20124;-82
2023/11/11 17:52:49;;;;;;;;;;;;;;;;;;10405042;28;20075;-82
2023/11/11 17:57:53;;;;;;;4.68;2.92;;;;;;;;;;10413759;28;19912;-83
2023/11/11 18:03:04;;;;;;;4.55;2.70;;;;;;;;;;10430863;28;20104;-85
2023/11/11 18:08:05;;;;;;;2.60;1.80;;;;;;;;;;10400181;28;20025;-83
2023/11/11 18:13:08;;;;;;;;;;;;;;;;;;10419884;28;20063;-85
2023/11/11 18:18:09;;;;;;;3.28;1.85;;;;;;;;;;10434112;28;20365;-85
2023/11/11 18:23:10;;;;;;;3.88;2.33;;;;;;;;;;10413848;28;20034;-85
2023/11/11 18:28:12;;;;;;;;;;;;;;;;;;10432564;28;20029;-85
2023/11/11 18:33:13;;;;;;;3.20;2.00;;;;;;;;;;10417473;28;19943;-85
2023/11/11 18:38:14;;;;;;;4.25;2.70;;;;;;;;;;10412135;28;20033;-86
2023/11/11 18:43:16;;;;;;;2.60;1.98;;;;;;;;;;10411346;28;20033;-83
2023/11/11 18:48:17;;;;;;;2.50;2.03;;;;;;;;;;10429307;28;20036;-82
2023/11/11 18:53:19;;;;;;;3.65;1.77;;;;;;;;;;10412406;28;20417;-84
2023/11/11 18:58:20;;;;;;;;;;;;;;;;;;10417741;28;20089;-81
2023/11/11 19:03:21;;;;;;;3.38;2.28;;;;;;;;;;10410952;28;20335;-85
2023/11/11 19:08:22;;;;;;;;;;;;;;;;;;10413145;28;20112;-85
2023/11/11 19:13:23;;;;;;;3.35;2.50;;;;;;;;;;10447843;28;19906;-83
2023/11/11 19:18:25;;;;;;;;;;;;;;;;;;10424987;28;20093;-83
2023/11/11 19:23:27;;;;;;;3.65;2.10;;;;;;;;;;10459460;28;19912;-83
2023/11/11 19:28:29;;;;;;;3.63;2.30;;;;;;;;;;10465829;28;20009;-83
2023/11/11 19:33:31;;;;;;;3.42;2.63;;;;;;;;;;10442370;28;20433;-83
2023/11/11 19:38:32;;;;;;;4.45;2.90;;;;;;;;;;10416871;28;20497;-82
2023/11/11 19:43:33;;;;;;;3.08;2.10;;;;;;;;;;10433532;28;20030;-82
2023/11/11 19:48:34;;;;;;;;;;;;;;;;;;10413594;28;20052;-82
2023/11/11 19:53:35;;;;;;;;;;;;;;;;;;10419131;28;20357;-85
2023/11/11 19:58:37;;;;;;;3.17;2.20;;;;;;;;;;10441496;28;19905;-86
2023/11/11 20:03:39;;;;;;;3.50;2.63;;;;;;;;;;10414212;28;20061;-82
2023/11/11 20:08:41;;;;;;;5.32;3.22;;;;;;;;;;10418799;28;20018;-83
